sensor_id;sensor_type;location;lat;lon;timestamp;P1;durP1;ratioP1;P2;durP2;ratioP2
25419;SDS011;13354;48.174;11.566;2023-07-09T00:02:15;15.57;;;8.02;;
25419;SDS011;13354;48.174;11.566;2023-07-09T00:04:41;13.98;;;8.93;;
25419;SDS011;13354;48.174;11.566;2023-07-09T00:07:08;12.93;;;8.45;;
25419;SDS011;13354;48.174;11.566;2023-07-09T00:09:41;12.20;;;8.35;;
25419;SDS011;13354;48.174;11.566;2023-07-09T00:12:09;11.27;;;7.90;;
25419;SDS011;13354;48.174;11.566;2023-07-09T00:14:38;11.20;;;7.90;;
25419;SDS011;13354;48.174;11.566;2023-07-09T00:17:04;11.00;;;7.70;;
25419;SDS011;13354;48.174;11.566;2023-07-09T00:19:34;11.02;;;7.97;;
25419;SDS011;13354;48.174;11.566;2023-07-09T00:22:00;13.27;;;7.90;;
25419;SDS011;13354;48.174;11.566;2023-07-09T00:24:25;16.83;;;7.90;;
25419;SDS011;13354;48.174;11.566;2023-07-09T00:26:51;15.15;;;7.90;;
25419;SDS011;13354;48.174;11.566;2023-07-09T00:29:17;12.38;;;8.02;;
25419;SDS011;13354;48.174;11.566;2023-07-09T00:31:43;10.68;;;6.95;;
25419;SDS011;13354;48.174;11.566;2023-07-09T00:34:09;14.05;;;7.70;;
25419;SDS011;13354;48.174;11.566;2023-07-09T00:36:39;9.20;;;7.57;;
25419;SDS011;13354;48.174;11.566;2023-07-09T00:39:15;10.13;;;7.18;;
25419;SDS011;13354;48.174;11.566;2023-07-09T00:41:43;13.07;;;7.28;;
25419;SDS011;13354;48.174;11.566;2023-07-09T00:44:52;14.10;;;6.55;;
25419;SDS011;13354;48.174;11.566;2023-07-09T00:49:34;11.43;;;6.60;;
25419;SDS011;13354;48.174;11.566;2023-07-09T00:54:58;8.23;;;5.80;;
25419;SDS011;13354;48.174;11.566;2023-07-09T00:57:29;11.43;;;6.20;;
25419;SDS011;13354;48.174;11.566;2023-07-09T00:59:56;9.95;;;6.15;;
25419;SDS011;13354;48.174;11.566;2023-07-09T01:02:34;10.95;;;6.03;;
25419;SDS011;13354;48.174;11.566;2023-07-09T01:05:00;10.15;;;5.90;;
25419;SDS011;13354;48.174;11.566;2023-07-09T01:07:27;10.38;;;6.43;;
25419;SDS011;13354;48.174;11.566;2023-07-09T01:09:53;10.52;;;6.10;;
25419;SDS011;13354;48.174;11.566;2023-07-09T01:12:19;9.70;;;6.53;;
25419;SDS011;13354;48.174;11.566;2023-07-09T01:14:45;9.60;;;6.40;;
25419;SDS011;13354;48.174;11.566;2023-07-09T01:17:13;8.00;;;5.28;;
25419;SDS011;13354;48.174;11.566;2023-07-09T01:19:40;9.68;;;5.93;;
25419;SDS011;13354;48.174;11.566;2023-07-09T01:22:11;10.15;;;6.28;;
25419;SDS011;13354;48.174;11.566;2023-07-09T01:27:20;11.27;;;5.93;;
25419;SDS011;13354;48.174;11.566;2023-07-09T01:29:54;8.68;;;5.85;;
25419;SDS011;13354;48.174;11.566;2023-07-09T01:32:21;9.60;;;5.85;;
25419;SDS011;13354;48.174;11.566;2023-07-09T01:34:48;9.75;;;5.90;;
25419;SDS011;13354;48.174;11.566;2023-07-09T01:37:19;11.70;;;6.13;;
25419;SDS011;13354;48.174;11.566;2023-07-09T01:39:48;9.75;;;5.90;;
25419;SDS011;13354;48.174;11.566;2023-07-09T01:42:15;9.65;;;6.03;;
25419;SDS011;13354;48.174;11.566;2023-07-09T01:44:43;9.30;;;6.10;;
25419;SDS011;13354;48.174;11.566;2023-07-09T01:47:10;8.38;;;5.68;;
25419;SDS011;13354;48.174;11.566;2023-07-09T01:49:35;10.13;;;5.60;;
25419;SDS011;13354;48.174;11.566;2023-07-09T01:52:01;8.40;;;5.70;;
25419;SDS011;13354;48.174;11.566;2023-07-09T01:54:31;9.40;;;5.78;;
25419;SDS011;13354;48.174;11.566;2023-07-09T01:57:12;9.18;;;5.90;;
25419;SDS011;13354;48.174;11.566;2023-07-09T01:59:51;9.55;;;5.72;;
25419;SDS011;13354;48.174;11.566;2023-07-09T02:02:19;8.13;;;5.82;;
25419;SDS011;13354;48.174;11.566;2023-07-09T02:04:46;8.20;;;5.38;;
25419;SDS011;13354;48.174;11.566;2023-07-09T02:07:12;11.07;;;6.00;;
25419;SDS011;13354;48.174;11.566;2023-07-09T02:09:37;10.32;;;5.55;;
25419;SDS011;13354;48.174;11.566;2023-07-09T02:12:03;8.17;;;6.10;;
25419;SDS011;13354;48.174;11.566;2023-07-09T02:14:28;7.72;;;5.03;;
25419;SDS011;13354;48.174;11.566;2023-07-09T02:16:53;11.38;;;5.60;;
25419;SDS011;13354;48.174;11.566;2023-07-09T02:19:19;7.00;;;5.18;;
25419;SDS011;13354;48.174;11.566;2023-07-09T02:21:44;10.30;;;5.70;;
25419;SDS011;13354;48.174;11.566;2023-07-09T02:24:09;8.80;;;5.38;;
25419;SDS011;13354;48.174;11.566;2023-07-09T02:26:35;9.07;;;5.40;;
25419;SDS011;13354;48.174;11.566;2023-07-09T02:29:00;8.38;;;5.43;;
25419;SDS011;13354;48.174;11.566;2023-07-09T02:31:25;8.90;;;5.30;;
25419;SDS011;13354;48.174;11.566;2023-07-09T02:33:55;7.60;;;4.88;;
25419;SDS011;13354;48.174;11.566;2023-07-09T02:36:24;7.55;;;5.30;;
25419;SDS011;13354;48.174;11.566;2023-07-09T02:38:49;8.07;;;5.03;;
25419;SDS011;13354;48.174;11.566;2023-07-09T02:41:14;9.47;;;5.43;;
25419;SDS011;13354;48.174;11.566;2023-07-09T02:43:40;8.15;;;4.97;;
25419;SDS011;13354;48.174;11.566;2023-07-09T02:46:06;9.30;;;4.90;;
25419;SDS011;13354;48.174;11.566;2023-07-09T02:48:31;9.55;;;4.93;;
25419;SDS011;13354;48.174;11.566;2023-07-09T02:50:56;7.00;;;5.05;;
25419;SDS011;13354;48.174;11.566;2023-07-09T02:53:22;8.07;;;5.15;;
25419;SDS011;13354;48.174;11.566;2023-07-09T02:55:47;8.85;;;5.53;;
25419;SDS011;13354;48.174;11.566;2023-07-09T02:58:12;8.87;;;5.03;;
25419;SDS011;13354;48.174;11.566;2023-07-09T03:00:37;7.13;;;4.87;;
25419;SDS011;13354;48.174;11.566;2023-07-09T03:03:03;9.00;;;5.43;;
25419;SDS011;13354;48.174;11.566;2023-07-09T03:05:28;8.60;;;5.20;;
25419;SDS011;13354;48.174;11.566;2023-07-09T03:07:53;8.63;;;5.15;;
25419;SDS011;13354;48.174;11.566;2023-07-09T03:10:18;8.77;;;4.93;;
25419;SDS011;13354;48.174;11.566;2023-07-09T03:12:44;7.37;;;4.70;;
25419;SDS011;13354;48.174;11.566;2023-07-09T03:15:09;9.13;;;5.32;;
25419;SDS011;13354;48.174;11.566;2023-07-09T03:17:34;8.52;;;5.25;;
25419;SDS011;13354;48.174;11.566;2023-07-09T03:20:00;7.50;;;4.60;;
25419;SDS011;13354;48.174;11.566;2023-07-09T03:22:25;9.55;;;4.70;;
25419;SDS011;13354;48.174;11.566;2023-07-09T03:24:50;5.80;;;4.63;;
25419;SDS011;13354;48.174;11.566;2023-07-09T03:27:16;7.93;;;4.97;;
25419;SDS011;13354;48.174;11.566;2023-07-09T03:29:41;8.43;;;4.95;;
25419;SDS011;13354;48.174;11.566;2023-07-09T03:32:06;7.63;;;4.50;;
25419;SDS011;13354;48.174;11.566;2023-07-09T03:34:32;7.28;;;4.75;;
25419;SDS011;13354;48.174;11.566;2023-07-09T03:36:57;6.93;;;4.70;;
25419;SDS011;13354;48.174;11.566;2023-07-09T03:39:22;7.97;;;5.15;;
25419;SDS011;13354;48.174;11.566;2023-07-09T03:41:48;6.15;;;4.80;;
25419;SDS011;13354;48.174;11.566;2023-07-09T03:44:13;12.43;;;5.10;;
25419;SDS011;13354;48.174;11.566;2023-07-09T03:46:38;10.68;;;4.93;;
25419;SDS011;13354;48.174;11.566;2023-07-09T03:49:04;7.90;;;5.30;;
25419;SDS011;13354;48.174;11.566;2023-07-09T03:51:29;6.22;;;4.65;;
25419;SDS011;13354;48.174;11.566;2023-07-09T03:53:54;11.68;;;5.15;;
25419;SDS011;13354;48.174;11.566;2023-07-09T03:56:20;7.85;;;5.18;;
25419;SDS011;13354;48.174;11.566;2023-07-09T03:58:45;6.28;;;4.55;;
25419;SDS011;13354;48.174;11.566;2023-07-09T04:01:11;8.65;;;5.30;;
25419;SDS011;13354;48.174;11.566;2023-07-09T04:03:36;8.73;;;5.20;;
25419;SDS011;13354;48.174;11.566;2023-07-09T04:06:02;9.70;;;5.50;;
25419;SDS011;13354;48.174;11.566;2023-07-09T04:08:27;9.15;;;4.90;;
25419;SDS011;13354;48.174;11.566;2023-07-09T04:10:53;8.82;;;5.30;;
25419;SDS011;13354;48.174;11.566;2023-07-09T04:13:21;10.82;;;4.85;;
25419;SDS011;13354;48.174;11.566;2023-07-09T04:15:47;9.80;;;4.57;;
25419;SDS011;13354;48.174;11.566;2023-07-09T04:18:12;6.93;;;4.60;;
25419;SDS011;13354;48.174;11.566;2023-07-09T04:20:37;8.35;;;4.93;;
25419;SDS011;13354;48.174;11.566;2023-07-09T04:23:03;6.78;;;4.75;;
25419;SDS011;13354;48.174;11.566;2023-07-09T04:25:29;8.50;;;5.15;;
25419;SDS011;13354;48.174;11.566;2023-07-09T04:27:55;8.63;;;5.05;;
25419;SDS011;13354;48.174;11.566;2023-07-09T04:30:20;8.13;;;4.80;;
25419;SDS011;13354;48.174;11.566;2023-07-09T04:32:46;9.07;;;5.18;;
25419;SDS011;13354;48.174;11.566;2023-07-09T04:35:12;10.27;;;4.80;;
25419;SDS011;13354;48.174;11.566;2023-07-09T04:37:39;8.65;;;4.57;;
25419;SDS011;13354;48.174;11.566;2023-07-09T04:40:06;10.30;;;5.13;;
25419;SDS011;13354;48.174;11.566;2023-07-09T04:42:35;6.25;;;4.50;;
25419;SDS011;13354;48.174;11.566;2023-07-09T04:45:00;7.32;;;4.93;;
25419;SDS011;13354;48.174;11.566;2023-07-09T04:47:25;9.23;;;5.33;;
25419;SDS011;13354;48.174;11.566;2023-07-09T04:49:51;8.65;;;5.00;;
25419;SDS011;13354;48.174;11.566;2023-07-09T04:52:16;7.85;;;5.00;;
25419;SDS011;13354;48.174;11.566;2023-07-09T04:54:41;9.32;;;4.97;;
25419;SDS011;13354;48.174;11.566;2023-07-09T04:57:10;7.80;;;4.60;;
25419;SDS011;13354;48.174;11.566;2023-07-09T04:59:36;7.63;;;4.70;;
25419;SDS011;13354;48.174;11.566;2023-07-09T05:02:02;6.43;;;4.50;;
25419;SDS011;13354;48.174;11.566;2023-07-09T05:04:28;6.40;;;4.60;;
25419;SDS011;13354;48.174;11.566;2023-07-09T05:06:54;6.32;;;4.50;;
25419;SDS011;13354;48.174;11.566;2023-07-09T05:09:21;7.10;;;4.22;;
25419;SDS011;13354;48.174;11.566;2023-07-09T05:11:48;6.07;;;4.22;;
25419;SDS011;13354;48.174;11.566;2023-07-09T05:14:14;7.78;;;4.65;;
25419;SDS011;13354;48.174;11.566;2023-07-09T05:16:39;8.73;;;4.88;;
25419;SDS011;13354;48.174;11.566;2023-07-09T05:19:06;7.60;;;4.40;;
25419;SDS011;13354;48.174;11.566;2023-07-09T05:21:33;8.55;;;4.00;;
25419;SDS011;13354;48.174;11.566;2023-07-09T05:23:59;6.68;;;4.43;;
25419;SDS011;13354;48.174;11.566;2023-07-09T05:26:24;6.90;;;3.92;;
25419;SDS011;13354;48.174;11.566;2023-07-09T05:28:50;5.47;;;4.00;;
25419;SDS011;13354;48.174;11.566;2023-07-09T05:31:15;6.20;;;4.47;;
25419;SDS011;13354;48.174;11.566;2023-07-09T05:33:40;6.55;;;4.18;;
25419;SDS011;13354;48.174;11.566;2023-07-09T05:36:05;5.53;;;4.10;;
25419;SDS011;13354;48.174;11.566;2023-07-09T05:38:32;7.28;;;4.70;;
25419;SDS011;13354;48.174;11.566;2023-07-09T05:41:03;7.35;;;3.95;;
25419;SDS011;13354;48.174;11.566;2023-07-09T05:43:29;7.65;;;3.97;;
25419;SDS011;13354;48.174;11.566;2023-07-09T05:45:55;5.95;;;4.18;;
25419;SDS011;13354;48.174;11.566;2023-07-09T05:48:20;5.85;;;4.25;;
25419;SDS011;13354;48.174;11.566;2023-07-09T05:50:47;8.40;;;4.20;;
25419;SDS011;13354;48.174;11.566;2023-07-09T05:53:13;6.70;;;4.22;;
25419;SDS011;13354;48.174;11.566;2023-07-09T05:55:39;7.18;;;3.75;;
25419;SDS011;13354;48.174;11.566;2023-07-09T05:58:04;6.30;;;3.70;;
25419;SDS011;13354;48.174;11.566;2023-07-09T06:00:29;5.65;;;3.60;;
25419;SDS011;13354;48.174;11.566;2023-07-09T06:02:54;8.17;;;3.80;;
25419;SDS011;13354;48.174;11.566;2023-07-09T06:05:20;6.78;;;3.63;;
25419;SDS011;13354;48.174;11.566;2023-07-09T06:07:45;7.47;;;3.88;;
25419;SDS011;13354;48.174;11.566;2023-07-09T06:10:10;4.72;;;3.80;;
25419;SDS011;13354;48.174;11.566;2023-07-09T06:12:36;3.53;;;3.22;;
25419;SDS011;13354;48.174;11.566;2023-07-09T06:15:01;5.45;;;3.47;;
25419;SDS011;13354;48.174;11.566;2023-07-09T06:17:27;6.85;;;3.65;;
25419;SDS011;13354;48.174;11.566;2023-07-09T06:19:52;5.63;;;3.50;;
25419;SDS011;13354;48.174;11.566;2023-07-09T06:22:17;4.57;;;3.72;;
25419;SDS011;13354;48.174;11.566;2023-07-09T06:24:44;7.00;;;3.90;;
25419;SDS011;13354;48.174;11.566;2023-07-09T06:27:10;5.00;;;3.20;;
25419;SDS011;13354;48.174;11.566;2023-07-09T06:29:35;6.70;;;3.40;;
25419;SDS011;13354;48.174;11.566;2023-07-09T06:32:00;6.47;;;3.40;;
25419;SDS011;13354;48.174;11.566;2023-07-09T06:34:26;6.15;;;3.67;;
25419;SDS011;13354;48.174;11.566;2023-07-09T06:36:51;6.95;;;3.25;;
25419;SDS011;13354;48.174;11.566;2023-07-09T06:39:17;5.03;;;3.38;;
25419;SDS011;13354;48.174;11.566;2023-07-09T06:41:44;5.63;;;3.38;;
25419;SDS011;13354;48.174;11.566;2023-07-09T06:44:09;7.77;;;3.67;;
25419;SDS011;13354;48.174;11.566;2023-07-09T06:46:35;6.80;;;3.80;;
25419;SDS011;13354;48.174;11.566;2023-07-09T06:49:01;6.22;;;3.85;;
25419;SDS011;13354;48.174;11.566;2023-07-09T06:51:27;6.05;;;3.53;;
25419;SDS011;13354;48.174;11.566;2023-07-09T06:53:52;5.82;;;3.33;;
25419;SDS011;13354;48.174;11.566;2023-07-09T06:56:17;5.87;;;3.70;;
25419;SDS011;13354;48.174;11.566;2023-07-09T06:58:43;4.87;;;3.20;;
25419;SDS011;13354;48.174;11.566;2023-07-09T07:01:09;6.30;;;3.38;;
25419;SDS011;13354;48.174;11.566;2023-07-09T07:03:36;7.65;;;3.30;;
25419;SDS011;13354;48.174;11.566;2023-07-09T07:06:01;5.57;;;3.30;;
25419;SDS011;13354;48.174;11.566;2023-07-09T07:08:27;4.82;;;3.55;;
25419;SDS011;13354;48.174;11.566;2023-07-09T07:10:56;4.68;;;3.28;;
25419;SDS011;13354;48.174;11.566;2023-07-09T07:13:29;5.15;;;3.40;;
25419;SDS011;13354;48.174;11.566;2023-07-09T07:15:58;7.05;;;3.17;;
25419;SDS011;13354;48.174;11.566;2023-07-09T07:18:24;4.60;;;3.00;;
25419;SDS011;13354;48.174;11.566;2023-07-09T07:20:49;4.18;;;3.22;;
25419;SDS011;13354;48.174;11.566;2023-07-09T07:23:16;7.88;;;3.67;;
25419;SDS011;13354;48.174;11.566;2023-07-09T07:25:42;4.20;;;3.20;;
25419;SDS011;13354;48.174;11.566;2023-07-09T07:28:07;7.18;;;3.28;;
25419;SDS011;13354;48.174;11.566;2023-07-09T07:30:33;6.97;;;3.50;;
25419;SDS011;13354;48.174;11.566;2023-07-09T07:32:58;7.18;;;3.30;;
25419;SDS011;13354;48.174;11.566;2023-07-09T07:35:24;6.57;;;3.55;;
25419;SDS011;13354;48.174;11.566;2023-07-09T07:37:49;4.28;;;3.10;;
25419;SDS011;13354;48.174;11.566;2023-07-09T07:40:15;5.15;;;3.03;;
25419;SDS011;13354;48.174;11.566;2023-07-09T07:42:40;7.35;;;3.25;;
25419;SDS011;13354;48.174;11.566;2023-07-09T07:45:06;5.95;;;3.45;;
25419;SDS011;13354;48.174;11.566;2023-07-09T07:47:32;4.63;;;3.08;;
25419;SDS011;13354;48.174;11.566;2023-07-09T07:49:58;5.95;;;3.72;;
25419;SDS011;13354;48.174;11.566;2023-07-09T07:52:24;4.72;;;3.70;;
25419;SDS011;13354;48.174;11.566;2023-07-09T07:54:50;5.38;;;3.60;;
25419;SDS011;13354;48.174;11.566;2023-07-09T07:57:17;5.78;;;3.60;;
25419;SDS011;13354;48.174;11.566;2023-07-09T07:59:42;4.85;;;3.30;;
25419;SDS011;13354;48.174;11.566;2023-07-09T08:02:11;6.47;;;3.38;;
25419;SDS011;13354;48.174;11.566;2023-07-09T08:04:38;7.30;;;3.10;;
25419;SDS011;13354;48.174;11.566;2023-07-09T08:07:05;7.15;;;3.55;;
25419;SDS011;13354;48.174;11.566;2023-07-09T08:09:32;7.88;;;3.78;;
25419;SDS011;13354;48.174;11.566;2023-07-09T08:11:58;6.00;;;3.70;;
25419;SDS011;13354;48.174;11.566;2023-07-09T08:14:23;5.17;;;4.00;;
25419;SDS011;13354;48.174;11.566;2023-07-09T08:16:48;10.73;;;3.85;;
25419;SDS011;13354;48.174;11.566;2023-07-09T08:19:17;5.13;;;3.17;;
25419;SDS011;13354;48.174;11.566;2023-07-09T08:21:43;6.65;;;3.67;;
25419;SDS011;13354;48.174;11.566;2023-07-09T08:24:09;6.13;;;3.43;;
25419;SDS011;13354;48.174;11.566;2023-07-09T08:26:34;6.60;;;3.60;;
25419;SDS011;13354;48.174;11.566;2023-07-09T08:29:02;6.82;;;3.72;;
25419;SDS011;13354;48.174;11.566;2023-07-09T08:31:28;4.43;;;3.60;;
25419;SDS011;13354;48.174;11.566;2023-07-09T08:33:53;5.90;;;3.53;;
25419;SDS011;13354;48.174;11.566;2023-07-09T08:36:19;6.70;;;3.93;;
25419;SDS011;13354;48.174;11.566;2023-07-09T08:38:44;6.85;;;4.10;;
25419;SDS011;13354;48.174;11.566;2023-07-09T08:44:04;7.25;;;3.60;;
25419;SDS011;13354;48.174;11.566;2023-07-09T08:52:05;7.43;;;4.00;;
25419;SDS011;13354;48.174;11.566;2023-07-09T08:54:39;5.35;;;3.60;;
25419;SDS011;13354;48.174;11.566;2023-07-09T08:57:13;6.47;;;3.92;;
25419;SDS011;13354;48.174;11.566;2023-07-09T08:59:43;5.38;;;3.88;;
25419;SDS011;13354;48.174;11.566;2023-07-09T09:02:14;4.53;;;3.67;;
25419;SDS011;13354;48.174;11.566;2023-07-09T09:04:55;10.38;;;3.88;;
25419;SDS011;13354;48.174;11.566;2023-07-09T09:10:00;7.72;;;3.65;;
25419;SDS011;13354;48.174;11.566;2023-07-09T09:12:29;6.55;;;3.92;;
25419;SDS011;13354;48.174;11.566;2023-07-09T09:15:02;6.70;;;3.70;;
25419;SDS011;13354;48.174;11.566;2023-07-09T09:17:36;6.32;;;3.70;;
25419;SDS011;13354;48.174;11.566;2023-07-09T09:20:04;4.65;;;3.00;;
25419;SDS011;13354;48.174;11.566;2023-07-09T09:22:42;5.38;;;3.78;;
25419;SDS011;13354;48.174;11.566;2023-07-09T09:27:39;7.15;;;3.60;;
25419;SDS011;13354;48.174;11.566;2023-07-09T09:30:08;5.20;;;3.13;;
25419;SDS011;13354;48.174;11.566;2023-07-09T09:32:41;9.85;;;3.88;;
25419;SDS011;13354;48.174;11.566;2023-07-09T09:35:16;4.97;;;3.50;;
25419;SDS011;13354;48.174;11.566;2023-07-09T09:37:45;6.63;;;3.80;;
25419;SDS011;13354;48.174;11.566;2023-07-09T09:40:17;7.47;;;3.65;;
25419;SDS011;13354;48.174;11.566;2023-07-09T09:42:43;8.20;;;3.65;;
25419;SDS011;13354;48.174;11.566;2023-07-09T09:45:11;5.65;;;3.30;;
25419;SDS011;13354;48.174;11.566;2023-07-09T09:47:41;5.70;;;3.42;;
25419;SDS011;13354;48.174;11.566;2023-07-09T09:50:09;6.38;;;3.47;;
25419;SDS011;13354;48.174;11.566;2023-07-09T09:52:46;6.15;;;3.75;;
25419;SDS011;13354;48.174;11.566;2023-07-09T09:55:16;8.52;;;3.70;;
25419;SDS011;13354;48.174;11.566;2023-07-09T09:57:47;5.97;;;3.28;;
25419;SDS011;13354;48.174;11.566;2023-07-09T10:00:15;6.82;;;4.22;;
25419;SDS011;13354;48.174;11.566;2023-07-09T10:02:41;8.48;;;4.70;;
25419;SDS011;13354;48.174;11.566;2023-07-09T10:05:13;7.70;;;3.53;;
25419;SDS011;13354;48.174;11.566;2023-07-09T10:07:44;6.50;;;3.83;;
25419;SDS011;13354;48.174;11.566;2023-07-09T10:10:25;4.88;;;3.30;;
25419;SDS011;13354;48.174;11.566;2023-07-09T10:27:11;4.72;;;3.40;;
25419;SDS011;13354;48.174;11.566;2023-07-09T10:32:36;5.93;;;4.07;;
25419;SDS011;13354;48.174;11.566;2023-07-09T10:35:15;6.32;;;3.20;;
25419;SDS011;13354;48.174;11.566;2023-07-09T10:43:13;8.82;;;3.55;;
25419;SDS011;13354;48.174;11.566;2023-07-09T10:45:44;4.63;;;3.10;;
25419;SDS011;13354;48.174;11.566;2023-07-09T10:48:18;7.95;;;3.55;;
25419;SDS011;13354;48.174;11.566;2023-07-09T10:53:43;4.97;;;3.35;;
25419;SDS011;13354;48.174;11.566;2023-07-09T10:56:20;6.75;;;3.47;;
25419;SDS011;13354;48.174;11.566;2023-07-09T11:01:19;6.22;;;3.53;;
25419;SDS011;13354;48.174;11.566;2023-07-09T11:03:54;7.07;;;3.60;;
25419;SDS011;13354;48.174;11.566;2023-07-09T11:06:33;7.13;;;3.67;;
25419;SDS011;13354;48.174;11.566;2023-07-09T11:09:04;8.43;;;3.58;;
25419;SDS011;13354;48.174;11.566;2023-07-09T11:11:41;9.20;;;3.45;;
25419;SDS011;13354;48.174;11.566;2023-07-09T11:14:30;5.65;;;3.65;;
25419;SDS011;13354;48.174;11.566;2023-07-09T11:17:00;8.02;;;3.58;;
25419;SDS011;13354;48.174;11.566;2023-07-09T11:19:27;7.75;;;3.10;;
25419;SDS011;13354;48.174;11.566;2023-07-09T11:22:03;4.35;;;3.25;;
25419;SDS011;13354;48.174;11.566;2023-07-09T11:24:51;7.40;;;3.45;;
25419;SDS011;13354;48.174;11.566;2023-07-09T11:27:30;4.32;;;3.00;;
25419;SDS011;13354;48.174;11.566;2023-07-09T11:29:57;6.93;;;3.80;;
25419;SDS011;13354;48.174;11.566;2023-07-09T11:32:30;5.20;;;3.33;;
25419;SDS011;13354;48.174;11.566;2023-07-09T11:35:05;4.85;;;3.33;;
25419;SDS011;13354;48.174;11.566;2023-07-09T11:37:43;6.93;;;2.97;;
25419;SDS011;13354;48.174;11.566;2023-07-09T11:40:10;7.53;;;3.85;;
25419;SDS011;13354;48.174;11.566;2023-07-09T11:42:54;6.22;;;3.03;;
25419;SDS011;13354;48.174;11.566;2023-07-09T11:45:23;7.28;;;3.55;;
25419;SDS011;13354;48.174;11.566;2023-07-09T11:57:53;7.65;;;3.83;;
25419;SDS011;13354;48.174;11.566;2023-07-09T12:00:23;5.95;;;3.47;;
25419;SDS011;13354;48.174;11.566;2023-07-09T12:02:50;6.75;;;3.30;;
25419;SDS011;13354;48.174;11.566;2023-07-09T12:05:19;5.35;;;3.25;;
25419;SDS011;13354;48.174;11.566;2023-07-09T12:07:51;5.85;;;3.42;;
25419;SDS011;13354;48.174;11.566;2023-07-09T12:10:20;7.43;;;3.30;;
25419;SDS011;13354;48.174;11.566;2023-07-09T12:12:48;6.07;;;3.70;;
25419;SDS011;13354;48.174;11.566;2023-07-09T12:15:15;5.18;;;3.38;;
25419;SDS011;13354;48.174;11.566;2023-07-09T12:17:51;7.70;;;3.70;;
25419;SDS011;13354;48.174;11.566;2023-07-09T12:20:18;4.22;;;3.03;;
25419;SDS011;13354;48.174;11.566;2023-07-09T12:22:44;6.05;;;3.58;;
25419;SDS011;13354;48.174;11.566;2023-07-09T12:25:24;5.68;;;3.72;;
25419;SDS011;13354;48.174;11.566;2023-07-09T12:27:52;6.85;;;3.63;;
25419;SDS011;13354;48.174;11.566;2023-07-09T12:30:18;10.30;;;7.15;;
25419;SDS011;13354;48.174;11.566;2023-07-09T12:32:47;8.27;;;4.07;;
25419;SDS011;13354;48.174;11.566;2023-07-09T12:35:20;5.97;;;3.58;;
25419;SDS011;13354;48.174;11.566;2023-07-09T12:37:46;4.57;;;2.90;;
25419;SDS011;13354;48.174;11.566;2023-07-09T12:40:17;4.70;;;3.25;;
25419;SDS011;13354;48.174;11.566;2023-07-09T12:42:46;6.18;;;3.33;;
25419;SDS011;13354;48.174;11.566;2023-07-09T12:45:16;5.22;;;3.60;;
25419;SDS011;13354;48.174;11.566;2023-07-09T12:47:44;6.13;;;3.58;;
25419;SDS011;13354;48.174;11.566;2023-07-09T12:52:54;5.95;;;3.55;;
25419;SDS011;13354;48.174;11.566;2023-07-09T12:55:23;6.50;;;3.92;;
25419;SDS011;13354;48.174;11.566;2023-07-09T12:57:51;7.80;;;3.60;;
25419;SDS011;13354;48.174;11.566;2023-07-09T13:00:17;7.03;;;3.78;;
25419;SDS011;13354;48.174;11.566;2023-07-09T13:02:44;6.68;;;3.60;;
25419;SDS011;13354;48.174;11.566;2023-07-09T13:05:21;5.47;;;3.40;;
25419;SDS011;13354;48.174;11.566;2023-07-09T13:08:01;5.38;;;3.58;;
25419;SDS011;13354;48.174;11.566;2023-07-09T13:10:28;4.82;;;3.50;;
25419;SDS011;13354;48.174;11.566;2023-07-09T13:12:57;7.63;;;3.42;;
25419;SDS011;13354;48.174;11.566;2023-07-09T13:15:28;6.85;;;3.22;;
25419;SDS011;13354;48.174;11.566;2023-07-09T13:17:59;5.38;;;3.30;;
25419;SDS011;13354;48.174;11.566;2023-07-09T13:20:27;6.55;;;3.25;;
25419;SDS011;13354;48.174;11.566;2023-07-09T13:22:53;7.00;;;3.63;;
25419;SDS011;13354;48.174;11.566;2023-07-09T13:25:19;4.80;;;3.08;;
25419;SDS011;13354;48.174;11.566;2023-07-09T13:27:44;6.33;;;3.00;;
25419;SDS011;13354;48.174;11.566;2023-07-09T13:30:11;6.55;;;3.30;;
25419;SDS011;13354;48.174;11.566;2023-07-09T13:32:36;7.15;;;3.17;;
25419;SDS011;13354;48.174;11.566;2023-07-09T13:35:03;5.13;;;3.30;;
25419;SDS011;13354;48.174;11.566;2023-07-09T13:37:30;9.55;;;3.67;;
25419;SDS011;13354;48.174;11.566;2023-07-09T13:39:56;4.20;;;3.08;;
25419;SDS011;13354;48.174;11.566;2023-07-09T13:42:21;5.57;;;3.67;;
25419;SDS011;13354;48.174;11.566;2023-07-09T13:44:47;6.93;;;3.25;;
25419;SDS011;13354;48.174;11.566;2023-07-09T13:47:13;5.80;;;3.00;;
25419;SDS011;13354;48.174;11.566;2023-07-09T13:49:41;5.22;;;3.30;;
25419;SDS011;13354;48.174;11.566;2023-07-09T13:52:08;5.80;;;3.25;;
25419;SDS011;13354;48.174;11.566;2023-07-09T13:54:42;6.22;;;3.20;;
25419;SDS011;13354;48.174;11.566;2023-07-09T13:57:11;5.68;;;3.45;;
25419;SDS011;13354;48.174;11.566;2023-07-09T13:59:38;6.25;;;2.90;;
25419;SDS011;13354;48.174;11.566;2023-07-09T14:02:07;7.97;;;3.42;;
25419;SDS011;13354;48.174;11.566;2023-07-09T14:04:49;5.85;;;3.22;;
25419;SDS011;13354;48.174;11.566;2023-07-09T14:07:28;6.45;;;3.30;;
25419;SDS011;13354;48.174;11.566;2023-07-09T14:09:56;7.72;;;3.50;;
25419;SDS011;13354;48.174;11.566;2023-07-09T14:12:22;6.53;;;3.35;;
25419;SDS011;13354;48.174;11.566;2023-07-09T14:14:52;4.75;;;3.42;;
25419;SDS011;13354;48.174;11.566;2023-07-09T14:17:18;4.93;;;3.58;;
25419;SDS011;13354;48.174;11.566;2023-07-09T14:19:44;6.05;;;3.08;;
25419;SDS011;13354;48.174;11.566;2023-07-09T14:24:41;9.13;;;3.80;;
25419;SDS011;13354;48.174;11.566;2023-07-09T14:27:07;7.13;;;3.50;;
25419;SDS011;13354;48.174;11.566;2023-07-09T14:29:33;6.47;;;3.15;;
25419;SDS011;13354;48.174;11.566;2023-07-09T14:31:59;5.70;;;3.20;;
25419;SDS011;13354;48.174;11.566;2023-07-09T14:34:26;7.20;;;3.20;;
25419;SDS011;13354;48.174;11.566;2023-07-09T14:36:55;5.22;;;3.10;;
25419;SDS011;13354;48.174;11.566;2023-07-09T14:39:29;5.38;;;2.97;;
25419;SDS011;13354;48.174;11.566;2023-07-09T14:41:54;5.85;;;3.13;;
25419;SDS011;13354;48.174;11.566;2023-07-09T14:46:50;6.60;;;3.50;;
25419;SDS011;13354;48.174;11.566;2023-07-09T14:49:17;5.72;;;3.17;;
25419;SDS011;13354;48.174;11.566;2023-07-09T14:51:44;5.38;;;3.42;;
25419;SDS011;13354;48.174;11.566;2023-07-09T14:56:46;8.45;;;3.40;;
25419;SDS011;13354;48.174;11.566;2023-07-09T14:59:13;7.00;;;2.97;;
25419;SDS011;13354;48.174;11.566;2023-07-09T15:01:38;7.18;;;3.67;;
25419;SDS011;13354;48.174;11.566;2023-07-09T15:04:50;5.97;;;3.38;;
25419;SDS011;13354;48.174;11.566;2023-07-09T15:06:55;5.80;;;3.08;;
25419;SDS011;13354;48.174;11.566;2023-07-09T15:09:22;6.68;;;3.40;;
25419;SDS011;13354;48.174;11.566;2023-07-09T15:11:50;7.97;;;3.50;;
25419;SDS011;13354;48.174;11.566;2023-07-09T15:14:17;8.70;;;3.47;;
25419;SDS011;13354;48.174;11.566;2023-07-09T15:16:42;6.90;;;3.55;;
25419;SDS011;13354;48.174;11.566;2023-07-09T15:19:18;4.38;;;2.80;;
25419;SDS011;13354;48.174;11.566;2023-07-09T15:21:49;7.35;;;3.08;;
25419;SDS011;13354;48.174;11.566;2023-07-09T15:26:55;4.68;;;3.33;;
25419;SDS011;13354;48.174;11.566;2023-07-09T15:29:22;7.82;;;3.22;;
25419;SDS011;13354;48.174;11.566;2023-07-09T15:31:48;7.68;;;3.22;;
25419;SDS011;13354;48.174;11.566;2023-07-09T15:34:14;6.78;;;3.30;;
25419;SDS011;13354;48.174;11.566;2023-07-09T15:36:47;5.22;;;3.50;;
25419;SDS011;13354;48.174;11.566;2023-07-09T15:39:16;5.38;;;3.35;;
25419;SDS011;13354;48.174;11.566;2023-07-09T15:41:45;7.88;;;3.17;;
25419;SDS011;13354;48.174;11.566;2023-07-09T15:44:12;6.22;;;3.53;;
25419;SDS011;13354;48.174;11.566;2023-07-09T15:46:39;6.30;;;3.25;;
25419;SDS011;13354;48.174;11.566;2023-07-09T15:49:06;5.57;;;3.10;;
25419;SDS011;13354;48.174;11.566;2023-07-09T15:51:32;8.07;;;3.05;;